Time;durP1;ratioP1;P1;durP2;ratioP2;P2;SDS_P1;SDS_P2;PMS_P1;PMS_P2;Temp;Humidity;BMP_temperature;BMP_pressure;BME280_temperature;BME280_humidity;BME280_pressure;Samples;Min_cycle;Max_cycle;Signal;HPM_P1;HPM_P2
2023/02/10 00:02:22;;;;;;;43.23;24.53;;;-2.70;99.90;;;;;;6221270;28;20069;-78
2023/02/10 00:05:25;;;;;;;40.03;24.07;;;-2.80;99.90;;;;;;6221723;28;20057;-78
2023/02/10 00:08:27;;;;;;;38.57;22.53;;;-2.70;99.90;;;;;;6221441;28;20049;-77
2023/02/10 00:14:48;;;;;;;40.00;23.27;;;-2.70;99.90;;;;;;6220690;28;20042;-78
2023/02/10 00:17:50;;;;;;;36.80;21.17;;;-2.70;99.90;;;;;;6220365;28;20061;-77
2023/02/10 00:20:53;;;;;;;41.73;20.50;;;-2.70;99.90;;;;;;6224366;28;20065;-78
2023/02/10 00:23:55;;;;;;;35.87;22.00;;;-2.70;99.90;;;;;;6229545;28;20050;-78
2023/02/10 00:26:56;;;;;;;40.53;22.23;;;-2.70;99.90;;;;;;6229423;28;20149;-78
2023/02/10 00:29:58;;;;;;;40.03;23.33;;;-2.80;99.90;;;;;;6229048;28;20049;-78
2023/02/10 00:33:00;;;;;;;40.13;22.97;;;-2.80;99.90;;;;;;6227193;28;20046;-78
2023/02/10 00:36:06;;;;;;;41.23;24.70;;;-2.90;99.90;;;;;;6233389;28;20056;-78
2023/02/10 00:39:08;;;;;;;41.60;22.30;;;-2.90;99.90;;;;;;6232010;28;20053;-78
2023/02/10 00:42:09;;;;;;;39.47;19.60;;;-2.90;99.90;;;;;;6230384;28;20064;-78
2023/02/10 00:45:11;;;;;;;35.83;22.27;;;-3.00;99.90;;;;;;6230161;28;20050;-78
2023/02/10 00:48:13;;;;;;;40.80;22.57;;;-2.90;99.90;;;;;;6230400;28;20053;-78
2023/02/10 00:51:16;;;;;;;36.60;21.27;;;-3.00;99.90;;;;;;6229672;28;20042;-78
2023/02/10 00:54:19;;;;;;;34.13;21.27;;;-3.10;99.90;;;;;;6228176;28;20050;-78
2023/02/10 00:57:20;;;;;;;34.03;20.70;;;-3.00;99.90;;;;;;6230692;28;20408;-78
2023/02/10 01:00:22;;;;;;;38.37;22.70;;;-3.00;99.90;;;;;;6229363;28;20062;-78
2023/02/10 01:03:24;;;;;;;36.20;21.40;;;-3.00;99.90;;;;;;6228615;28;20042;-78
2023/02/10 01:06:27;;;;;;;45.67;21.73;;;-3.00;99.90;;;;;;6228682;28;20067;-78
2023/02/10 01:09:29;;;;;;;35.47;21.83;;;-3.00;99.90;;;;;;6229292;28;20518;-78
2023/02/10 01:12:31;;;;;;;38.07;21.87;;;-3.10;99.90;;;;;;6228529;28;20046;-78
2023/02/10 01:15:33;;;;;;;42.47;21.43;;;-3.10;99.90;;;;;;6229024;28;20526;-78
2023/02/10 01:18:34;;;;;;;42.37;21.87;;;-3.00;99.90;;;;;;6226947;28;20496;-78
2023/02/10 01:21:38;;;;;;;38.87;22.30;;;-3.10;99.90;;;;;;6214833;28;20413;-78
2023/02/10 01:24:39;;;;;;;33.37;20.63;;;-3.00;99.90;;;;;;6203254;28;20050;-78
2023/02/10 01:27:41;;;;;;;38.17;21.77;;;-3.10;99.90;;;;;;6203084;28;20077;-77
2023/02/10 01:30:43;;;;;;;39.13;21.70;;;-3.10;99.90;;;;;;6201147;28;20062;-78
2023/02/10 01:33:45;;;;;;;37.37;22.37;;;-3.10;99.90;;;;;;6201809;28;20050;-78
2023/02/10 01:36:48;;;;;;;38.20;21.43;;;-3.00;99.90;;;;;;6201971;28;20602;-78
2023/02/10 01:39:50;;;;;;;41.77;22.67;;;-2.90;99.90;;;;;;6201525;28;20050;-78
2023/02/10 01:42:51;;;;;;;43.63;23.50;;;-2.80;99.90;;;;;;6201740;28;20038;-78
2023/02/10 01:45:53;;;;;;;35.30;20.07;;;-2.80;99.90;;;;;;6201319;28;20053;-78
2023/02/10 01:48:56;;;;;;;42.50;22.87;;;-2.70;99.90;;;;;;6201534;28;20046;-78
2023/02/10 01:52:02;;;;;;;40.53;21.37;;;-2.70;99.90;;;;;;6204381;28;20053;-79
2023/02/10 01:55:07;;;;;;;37.53;21.83;;;-2.70;99.90;;;;;;6224636;28;20052;-78
2023/02/10 01:58:11;;;;;;;44.17;23.93;;;-2.60;99.90;;;;;;6227658;28;20444;-78
2023/02/10 02:01:13;;;;;;;37.97;21.20;;;-2.60;99.90;;;;;;6226976;28;20038;-78
2023/02/10 02:04:14;;;;;;;38.03;23.73;;;-2.50;99.90;;;;;;6227603;28;20611;-78
2023/02/10 02:07:19;;;;;;;37.60;22.47;;;-2.40;99.90;;;;;;6226083;28;20064;-78
2023/02/10 02:10:24;;;;;;;38.50;23.23;;;-2.30;99.90;;;;;;6226190;28;20455;-78
2023/02/10 02:13:43;;;;;;;44.37;25.43;;;-2.30;99.90;;;;;;6226400;28;20053;-78
2023/02/10 02:16:59;;;;;;;38.37;22.40;;;-2.30;99.90;;;;;;6225809;28;20046;-78
2023/02/10 02:20:43;;;;;;;38.53;21.00;;;-2.40;99.90;;;;;;6226563;28;20496;-77
2023/02/10 02:24:14;;;;;;;41.20;23.83;;;-2.40;99.90;;;;;;6208355;28;20518;-78
2023/02/10 02:27:48;;;;;;;46.00;22.13;;;-2.50;99.90;;;;;;6204801;28;20519;-78
2023/02/10 02:31:10;;;;;;;36.87;24.33;;;-2.60;99.90;;;;;;6224927;28;20054;-78
2023/02/10 02:34:18;;;;;;;38.70;21.20;;;-2.60;99.90;;;;;;6223683;28;20050;-77
2023/02/10 02:37:20;;;;;;;;;;;-2.70;99.90;;;;;;6225407;28;20057;-78
2023/02/10 02:40:22;;;;;;;43.53;21.17;;;-2.70;99.90;;;;;;6225640;28;19922;-78
2023/02/10 02:43:24;;;;;;;44.83;24.23;;;-2.70;99.90;;;;;;6223199;28;20046;-77
2023/02/10 02:46:33;;;;;;;40.30;24.53;;;-2.60;99.90;;;;;;6224385;28;20050;-78
2023/02/10 02:49:43;;;;;;;51.60;23.97;;;-2.60;99.90;;;;;;6225068;28;20049;-78
2023/02/10 02:52:57;;;;;;;45.63;26.10;;;-2.60;99.90;;;;;;6227129;28;20045;-78
2023/02/10 02:56:06;;;;;;;40.93;23.37;;;-2.50;99.90;;;;;;6227860;28;20420;-78
2023/02/10 02:59:15;;;;;;;37.37;21.77;;;-2.50;99.90;;;;;;6228987;28;20058;-78
2023/02/10 03:02:20;;;;;;;45.23;21.30;;;-2.60;99.90;;;;;;6225537;28;20042;-78
2023/02/10 03:05:28;;;;;;;43.57;25.10;;;-2.60;99.90;;;;;;6227980;28;20573;-78
2023/02/10 03:08:33;;;;;;;35.77;20.93;;;-2.60;99.90;;;;;;6227919;28;20079;-78
2023/02/10 03:11:34;;;;;;;51.30;28.87;;;-2.60;99.90;;;;;;6226277;28;20048;-78
2023/02/10 03:14:36;;;;;;;48.37;26.60;;;-2.50;99.90;;;;;;6225974;28;20405;-78
2023/02/10 03:17:38;;;;;;;47.80;29.53;;;-2.40;99.90;;;;;;6228607;28;20087;-78
2023/02/10 03:20:41;;;;;;;50.70;28.40;;;-2.30;99.90;;;;;;6232903;28;20692;-78
2023/02/10 03:23:43;;;;;;;45.30;27.30;;;-2.20;99.90;;;;;;6229601;28;20046;-78
2023/02/10 03:26:45;;;;;;;44.67;24.50;;;-2.20;99.90;;;;;;6225343;28;20053;-78
2023/02/10 03:29:48;;;;;;;43.27;27.07;;;-2.20;99.90;;;;;;6225776;28;20424;-78
2023/02/10 03:32:51;;;;;;;36.60;24.70;;;-2.20;99.90;;;;;;6225735;28;20041;-78
2023/02/10 03:35:54;;;;;;;42.13;26.00;;;-2.30;99.90;;;;;;6226232;28;20056;-78
2023/02/10 03:38:56;;;;;;;43.50;23.73;;;-2.30;99.90;;;;;;6225955;28;20068;-78
2023/02/10 03:41:58;;;;;;;46.30;26.67;;;-2.30;99.90;;;;;;6226432;28;20042;-78
2023/02/10 03:44:59;;;;;;;45.90;25.17;;;-2.20;99.90;;;;;;6226528;28;20045;-78
2023/02/10 03:48:02;;;;;;;47.80;24.30;;;-2.30;99.90;;;;;;6226826;28;20057;-78
2023/02/10 03:51:07;;;;;;;45.20;26.73;;;-2.30;99.90;;;;;;6225294;28;20056;-78
2023/02/10 03:54:09;;;;;;;44.77;23.47;;;-2.30;99.90;;;;;;6226975;28;20124;-78
2023/02/10 03:57:11;;;;;;;52.50;25.53;;;-2.30;99.90;;;;;;6227877;28;20046;-78
2023/02/10 04:00:15;;;;;;;44.40;22.73;;;-2.30;99.90;;;;;;6231415;28;20049;-78
2023/02/10 04:03:18;;;;;;;42.87;24.23;;;-2.40;99.90;;;;;;6230081;28;20077;-78
2023/02/10 04:06:21;;;;;;;40.67;22.93;;;-2.40;99.90;;;;;;6230375;28;20136;-78
2023/02/10 04:09:23;;;;;;;47.23;26.07;;;-2.50;99.90;;;;;;6229857;28;20132;-78
2023/02/10 04:12:25;;;;;;;44.27;22.20;;;-2.50;99.90;;;;;;6229446;28;20041;-78
2023/02/10 04:15:27;;;;;;;37.37;22.70;;;-2.60;99.90;;;;;;6229750;28;20053;-78
2023/02/10 04:18:28;;;;;;;37.40;22.33;;;-2.60;99.90;;;;;;6231169;28;20046;-78
2023/02/10 04:21:31;;;;;;;40.47;22.10;;;-2.60;99.90;;;;;;6230433;28;20094;-78
2023/02/10 04:24:33;;;;;;;38.67;22.87;;;-2.70;99.90;;;;;;6230928;28;20100;-78
2023/02/10 04:27:35;;;;;;;48.60;27.57;;;-2.80;99.90;;;;;;6230787;28;20053;-79
2023/02/10 04:30:37;;;;;;;47.90;27.10;;;-2.90;99.90;;;;;;6230769;28;20050;-79
2023/02/10 04:33:38;;;;;;;47.77;26.73;;;-2.90;99.90;;;;;;6229958;28;20277;-78
2023/02/10 04:36:41;;;;;;;49.83;28.07;;;-2.70;99.90;;;;;;6229084;28;20065;-78
2023/02/10 04:39:43;;;;;;;48.30;27.37;;;-2.70;99.90;;;;;;6229783;28;20052;-79
2023/02/10 04:42:45;;;;;;;52.27;27.43;;;-2.60;99.90;;;;;;6228371;28;20045;-78
2023/02/10 04:45:47;;;;;;;49.13;26.53;;;-2.60;99.90;;;;;;6228891;28;20053;-78
2023/02/10 04:48:48;;;;;;;43.37;26.40;;;-2.60;99.90;;;;;;6228563;28;20062;-78
2023/02/10 04:51:51;;;;;;;44.07;24.13;;;-2.60;99.90;;;;;;6229465;28;20061;-78
2023/02/10 04:54:53;;;;;;;48.13;26.03;;;-2.60;99.90;;;;;;6227964;28;20049;-78
2023/02/10 04:57:55;;;;;;;46.83;25.13;;;-2.60;99.90;;;;;;6223058;28;20049;-78
2023/02/10 05:00:57;;;;;;;40.87;25.73;;;-2.70;99.90;;;;;;6224765;28;20041;-78
2023/02/10 05:03:58;;;;;;;41.17;24.87;;;-2.70;99.90;;;;;;6226683;28;20431;-78
2023/02/10 05:07:01;;;;;;;42.47;24.83;;;-2.80;99.90;;;;;;6224858;28;20053;-78
2023/02/10 05:10:04;;;;;;;50.20;26.90;;;-2.80;99.90;;;;;;6225121;28;20162;-78
2023/02/10 05:13:05;;;;;;;54.97;28.23;;;-2.80;99.90;;;;;;6225284;28;20048;-78
2023/02/10 05:16:08;;;;;;;51.00;28.43;;;-2.80;99.90;;;;;;6225115;28;20042;-78
2023/02/10 05:19:10;;;;;;;44.50;25.03;;;-2.70;99.90;;;;;;6224321;28;20054;-78
2023/02/10 05:22:13;;;;;;;50.27;28.53;;;-2.60;99.90;;;;;;6223808;28;20050;-78
2023/02/10 05:25:15;;;;;;;53.13;29.10;;;-2.60;99.90;;;;;;6223810;28;20603;-78
2023/02/10 05:28:16;;;;;;;48.47;28.00;;;-2.60;99.90;;;;;;6224451;28;20076;-78
2023/02/10 05:31:18;;;;;;;54.40;29.20;;;-2.60;99.90;;;;;;6223763;28;20424;-78
2023/02/10 05:34:20;;;;;;;59.33;29.30;;;-2.60;99.90;;;;;;6223628;28;20527;-78
2023/02/10 05:37:22;;;;;;;44.30;26.47;;;-2.60;99.90;;;;;;6224003;28;20071;-78
2023/02/10 05:40:24;;;;;;;55.53;29.50;;;-2.60;99.90;;;;;;6224831;28;20424;-77
2023/02/10 05:43:26;;;;;;;55.17;29.23;;;-2.60;99.90;;;;;;6223756;28;20038;-78
2023/02/10 05:46:28;;;;;;;76.30;32.53;;;-2.60;99.90;;;;;;6223862;28;20052;-78
2023/02/10 05:49:29;;;;;;;56.73;29.70;;;-2.60;99.90;;;;;;6224181;28;20057;-78
2023/02/10 05:52:32;;;;;;;47.20;29.87;;;-2.60;99.90;;;;;;6224588;28;20053;-78
2023/02/10 05:55:34;;;;;;;56.83;31.90;;;-2.60;99.90;;;;;;6224994;28;20054;-78
2023/02/10 05:58:36;;;;;;;50.60;32.57;;;-2.70;99.90;;;;;;6224684;28;20483;-78
2023/02/10 06:01:37;;;;;;;56.83;32.17;;;-2.70;99.90;;;;;;6225917;28;20511;-78
2023/02/10 06:04:39;;;;;;;61.97;33.47;;;-2.70;99.90;;;;;;6226975;28;20050;-78
2023/02/10 06:07:42;;;;;;;48.67;32.03;;;-2.70;99.90;;;;;;6228076;28;20061;-78
2023/02/10 06:10:44;;;;;;;55.77;34.93;;;-2.70;99.90;;;;;;6227238;28;20054;-78
2023/02/10 06:13:45;;;;;;;63.37;33.97;;;-2.60;99.90;;;;;;6224413;28;20052;-78
2023/02/10 06:16:47;;;;;;;56.23;32.37;;;-2.60;99.90;;;;;;6221704;28;20045;-78
2023/02/10 06:19:49;;;;;;;59.53;31.80;;;-2.40;99.90;;;;;;6222703;28;20053;-78
2023/02/10 06:22:52;;;;;;;65.33;32.60;;;-2.40;99.90;;;;;;6222564;28;20077;-78
2023/02/10 06:25:54;;;;;;;59.03;36.50;;;-2.40;99.90;;;;;;6223079;28;20046;-78
2023/02/10 06:28:56;;;;;;;56.17;30.63;;;-2.40;99.90;;;;;;6223868;28;20042;-79
2023/02/10 06:31:58;;;;;;;51.77;29.53;;;-2.30;99.90;;;;;;6224604;28;20095;-79
2023/02/10 06:35:00;;;;;;;64.20;36.63;;;-2.40;99.90;;;;;;6222154;28;20053;-76
2023/02/10 06:38:03;;;;;;;52.67;30.07;;;-2.40;99.90;;;;;;6221382;28;20046;-76
2023/02/10 06:41:05;;;;;;;50.67;29.40;;;-2.50;99.90;;;;;;6221074;28;20046;-76
2023/02/10 06:44:07;;;;;;;53.03;27.67;;;-2.60;99.90;;;;;;6222134;28;20516;-77
2023/02/10 06:47:09;;;;;;;54.70;30.03;;;-2.60;99.90;;;;;;6221561;28;20052;-77
2023/02/10 06:50:12;;;;;;;54.00;31.90;;;-2.70;99.90;;;;;;6221637;28;20050;-77
2023/02/10 06:53:15;;;;;;;58.23;33.93;;;-2.60;99.90;;;;;;6221133;28;20042;-76
2023/02/10 06:56:16;;;;;;;66.87;32.60;;;-2.60;99.90;;;;;;6221294;28;20054;-77
2023/02/10 06:59:18;;;;;;;57.80;33.27;;;-2.60;99.90;;;;;;6219736;28;20512;-76
2023/02/10 07:02:20;;;;;;;51.10;31.17;;;-2.60;99.90;;;;;;6220278;28;20053;-76
2023/02/10 07:05:22;;;;;;;54.40;31.67;;;-2.50;99.90;;;;;;6220918;28;20060;-76
2023/02/10 07:08:25;;;;;;;55.60;33.60;;;-2.50;99.90;;;;;;6241274;23;20061;-79
2023/02/10 07:11:26;;;;;;;59.70;30.77;;;-2.40;99.90;;;;;;6150873;28;20082;-81
2023/02/10 07:14:28;;;;;;;61.07;30.77;;;-2.40;99.90;;;;;;6150295;28;20051;-80
2023/02/10 07:17:30;;;;;;;60.73;35.20;;;-2.30;99.90;;;;;;6152177;28;20077;-80
2023/02/10 07:20:31;;;;;;;59.67;33.53;;;-2.20;99.90;;;;;;6170814;28;20051;-81
2023/02/10 07:23:34;;;;;;;63.50;35.77;;;-2.10;99.90;;;;;;6175272;28;20051;-80
2023/02/10 07:26:36;;;;;;;60.10;32.10;;;-2.00;99.90;;;;;;6175004;28;20050;-81
2023/02/10 07:29:38;;;;;;;51.23;32.00;;;-1.90;99.90;;;;;;6174966;28;20050;-81
2023/02/10 07:32:41;;;;;;;63.87;34.30;;;-1.80;99.90;;;;;;6176549;28;20047;-81
2023/02/10 07:35:43;;;;;;;54.43;31.20;;;-1.70;99.90;;;;;;6166700;28;20420;-81
2023/02/10 07:38:54;;;;;;;71.00;35.23;;;-1.60;99.90;;;;;;6157280;28;20058;-81
2023/02/10 07:41:57;;;;;;;64.83;40.30;;;-1.50;99.90;;;;;;6162189;28;20123;-81
2023/02/10 07:44:59;;;;;;;51.23;32.23;;;-1.40;99.90;;;;;;6168504;28;20417;-80
2023/02/10 07:48:01;;;;;;;63.33;36.77;;;-1.30;99.90;;;;;;6156865;29;20075;-81
2023/02/10 07:51:03;;;;;;;61.07;38.17;;;-1.30;99.90;;;;;;6156783;28;20043;-81
2023/02/10 07:54:06;;;;;;;59.33;35.67;;;-1.20;99.90;;;;;;6152794;28;20066;-79
2023/02/10 07:57:08;;;;;;;57.30;32.37;;;-1.10;99.90;;;;;;6153193;28;20051;-80
2023/02/10 08:00:12;;;;;;;61.47;36.20;;;-1.00;99.90;;;;;;6162048;28;20054;-79
2023/02/10 08:03:14;;;;;;;60.83;36.53;;;-0.90;99.90;;;;;;6177328;28;20047;-80
2023/02/10 08:06:21;;;;;;;49.97;33.63;;;-0.80;99.90;;;;;;6180344;28;20066;-81
2023/02/10 08:09:24;;;;;;;62.97;34.97;;;-0.60;99.90;;;;;;6175135;28;20067;-80
2023/02/10 08:12:25;;;;;;;48.80;31.13;;;-0.50;99.90;;;;;;6156970;28;20414;-81
2023/02/10 08:15:27;;;;;;;51.97;32.00;;;-0.30;99.90;;;;;;6151878;28;20398;-83
2023/02/10 08:18:29;;;;;;;54.07;33.67;;;-0.10;99.90;;;;;;6153116;28;20059;-81
2023/02/10 08:21:31;;;;;;;55.33;35.33;;;0.00;99.90;;;;;;6155494;28;20054;-81
2023/02/10 08:24:40;;;;;;;46.47;28.97;;;0.10;99.90;;;;;;6169111;29;20043;-82
2023/02/10 08:27:42;;;;;;;52.93;33.37;;;0.30;99.90;;;;;;6133595;28;20051;-80
2023/02/10 08:30:43;;;;;;;51.50;30.63;;;0.50;99.90;;;;;;6153793;28;20054;-80
2023/02/10 08:33:45;;;;;;;51.70;32.90;;;0.80;99.90;;;;;;6156696;28;20089;-81
2023/02/10 08:36:47;;;;;;;48.10;32.07;;;1.00;99.90;;;;;;6153924;28;20417;-80
2023/02/10 08:39:50;;;;;;;41.53;28.00;;;1.10;99.90;;;;;;6154473;28;20059;-80
2023/02/10 08:42:52;;;;;;;41.30;29.80;;;1.40;99.90;;;;;;6155548;28;20058;-82
2023/02/10 08:45:56;;;;;;;41.28;29.33;;;1.50;99.90;;;;;;6161426;28;20066;-79
2023/02/10 08:49:00;;;;;;;54.67;36.25;;;1.80;99.90;;;;;;6161949;28;20047;-80
2023/02/10 08:55:21;;;;;;;;;;;2.40;99.90;;;;;;6162723;28;20537;-80
2023/02/10 08:58:23;;;;;;;44.97;26.85;;;2.70;99.90;;;;;;6162194;28;19922;-79
2023/02/10 09:01:26;;;;;;;47.95;26.77;;;3.10;99.90;;;;;;6164700;28;20054;-80
2023/02/10 09:04:28;;;;;;;38.63;25.92;;;3.40;99.90;;;;;;6159065;29;20044;-78
2023/02/10 09:07:31;;;;;;;35.25;25.20;;;3.70;99.90;;;;;;6158899;28;20043;-79
2023/02/10 09:10:34;;;;;;;40.67;31.98;;;3.90;99.90;;;;;;6166489;28;20067;-80
2023/02/10 09:13:36;;;;;;;39.70;25.20;;;4.20;99.90;;;;;;6158929;28;20051;-79
2023/02/10 09:16:38;;;;;;;35.38;24.98;;;4.30;99.90;;;;;;6150587;28;20132;-79
2023/02/10 09:19:41;;;;;;;37.50;23.25;;;4.50;99.90;;;;;;6176455;28;20536;-78
2023/02/10 09:22:43;;;;;;;42.97;26.63;;;4.60;99.90;;;;;;6157447;28;20467;-78
2023/02/10 09:25:53;;;;;;;38.00;24.77;;;4.80;99.90;;;;;;6158259;28;20058;-78
2023/02/10 09:28:55;;;;;;;40.80;26.42;;;5.00;99.90;;;;;;6158592;28;20050;-78
2023/02/10 09:31:58;;;;;;;40.97;26.33;;;5.10;99.90;;;;;;6160522;28;20516;-77
2023/02/10 09:34:59;;;;;;;53.15;35.05;;;5.10;99.90;;;;;;6174195;28;20059;-77
2023/02/10 09:38:01;;;;;;;37.65;26.25;;;5.30;99.90;;;;;;6162872;28;20051;-77
2023/02/10 09:41:15;;;;;;;55.85;26.33;;;5.50;99.90;;;;;;6152657;28;20058;-78
2023/02/10 09:44:20;;;;;;;38.95;26.05;;;5.60;99.90;;;;;;6168492;28;20043;-78
2023/02/10 09:47:39;;;;;;;42.10;27.80;;;5.70;99.90;;;;;;6176536;28;20046;-79
2023/02/10 09:50:51;;;;;;;48.65;28.17;;;5.80;99.90;;;;;;6167649;28;20043;-78
2023/02/10 09:53:53;;;;;;;39.13;29.27;;;5.90;99.90;;;;;;6152139;28;20050;-79
2023/02/10 09:56:57;;;;;;;42.80;27.42;;;6.00;99.90;;;;;;6151647;28;20039;-78
2023/02/10 10:00:00;;;;;;;45.42;29.42;;;6.10;99.90;;;;;;6154241;28;20051;-79
2023/02/10 10:03:06;;;;;;;41.63;29.15;;;6.20;99.90;;;;;;6169826;28;20058;-78
2023/02/10 10:06:16;;;;;;;61.28;40.78;;;6.30;99.90;;;;;;6178335;28;20042;-79
2023/02/10 10:09:29;;;;;;;58.10;39.67;;;6.60;99.90;;;;;;6173273;28;20058;-79
2023/02/10 10:12:32;;;;;;;48.40;34.85;;;6.70;99.90;;;;;;6146959;29;20697;-78
2023/02/10 10:15:42;;;;;;;85.53;58.75;;;6.80;99.90;;;;;;6157540;28;20043;-78
2023/02/10 10:18:59;;;;;;;46.33;33.05;;;7.20;99.90;;;;;;6152899;28;20043;-78
2023/02/10 10:22:17;;;;;;;46.80;32.95;;;7.60;99.90;;;;;;6152742;28;20054;-78
2023/02/10 10:25:39;;;;;;;50.40;35.13;;;7.70;99.90;;;;;;6152952;28;20058;-78
2023/02/10 10:28:53;;;;;;;56.03;36.70;;;7.90;99.90;;;;;;6152746;28;20063;-78
2023/02/10 10:32:06;;;;;;;53.80;36.88;;;8.00;99.90;;;;;;6153837;28;20055;-78
2023/02/10 10:35:16;;;;;;;52.63;35.75;;;8.10;99.90;;;;;;6154481;28;20549;-78
2023/02/10 10:38:22;;;;;;;54.13;37.40;;;8.10;99.90;;;;;;6152854;28;20058;-78
2023/02/10 10:41:27;;;;;;;47.08;33.83;;;8.20;99.90;;;;;;6151778;28;20051;-79
2023/02/10 10:44:35;;;;;;;50.45;35.15;;;8.20;99.80;;;;;;6152392;28;20145;-78
2023/02/10 10:47:41;;;;;;;49.22;34.42;;;8.20;99.70;;;;;;6152187;28;20051;-78
2023/02/10 10:50:44;;;;;;;54.58;33.40;;;8.20;99.80;;;;;;6151846;28;20148;-78
2023/02/10 10:53:48;;;;;;;54.05;37.90;;;8.50;99.30;;;;;;6151562;28;20055;-78
2023/02/10 10:56:52;;;;;;;49.97;34.22;;;8.70;98.90;;;;;;6151480;28;20501;-78
2023/02/10 10:59:59;;;;;;;52.08;36.42;;;8.80;98.70;;;;;;6154507;28;20090;-79
2023/02/10 11:03:04;;;;;;;50.55;37.20;;;9.20;98.00;;;;;;6158471;28;20054;-78
2023/02/10 11:06:09;;;;;;;53.22;37.25;;;9.40;97.20;;;;;;6153032;28;20131;-77
2023/02/10 11:09:29;;;;;;;55.58;38.17;;;9.60;96.70;;;;;;6149374;28;20058;-77
2023/02/10 11:12:33;;;;;;;68.82;44.25;;;9.80;96.40;;;;;;6149904;28;20051;-77
2023/02/10 11:15:40;;;;;;;48.88;32.95;;;10.10;95.80;;;;;;6150172;28;20047;-78
2023/02/10 11:18:54;;;;;;;61.20;39.65;;;10.10;95.00;;;;;;6149666;28;20051;-77
2023/02/10 11:21:56;;;;;;;54.58;32.25;;;10.20;94.30;;;;;;6150232;28;20055;-78
2023/02/10 11:25:05;;;;;;;47.03;31.58;;;10.30;94.30;;;;;;6149396;28;20057;-78
2023/02/10 11:28:18;;;;;;;50.17;34.63;;;10.50;93.50;;;;;;6149540;28;20557;-78
2023/02/10 11:31:31;;;;;;;43.30;31.88;;;10.50;93.00;;;;;;6150657;28;20066;-78
2023/02/10 11:34:42;;;;;;;49.05;34.22;;;10.60;92.30;;;;;;6152148;28;20074;-78
2023/02/10 11:37:55;;;;;;;47.13;35.92;;;10.80;92.00;;;;;;6149013;28;20118;-78
2023/02/10 11:41:04;;;;;;;49.67;35.60;;;11.20;91.70;;;;;;6155257;28;20122;-78
2023/02/10 11:44:25;;;;;;;43.15;32.20;;;11.60;91.30;;;;;;6149244;28;20062;-78
2023/02/10 11:47:30;;;;;;;46.55;34.90;;;11.70;90.30;;;;;;6148892;28;20058;-78
2023/02/10 11:50:36;;;;;;;48.80;35.38;;;11.60;89.10;;;;;;6149120;28;20560;-77
2023/02/10 11:53:53;;;;;;;46.63;32.00;;;11.60;88.30;;;;;;6148866;28;20055;-78
2023/02/10 12:00:44;;;;;;;42.90;30.40;;;12.00;85.90;;;;;;6150102;28;20440;-78
2023/02/10 12:04:06;;;;;;;42.75;31.00;;;12.00;85.80;;;;;;6154352;28;20456;-77
2023/02/10 12:07:21;;;;;;;42.80;32.00;;;12.20;84.80;;;;;;6162344;28;20062;-77
2023/02/10 12:10:39;;;;;;;41.45;29.98;;;12.50;84.00;;;;;;6157656;28;20047;-77
2023/02/10 12:13:59;;;;;;;43.45;29.50;;;12.80;82.70;;;;;;6127266;28;20071;-78
2023/02/10 12:17:06;;;;;;;38.85;27.67;;;12.90;80.90;;;;;;6131839;29;20486;-78
2023/02/10 12:20:26;;;;;;;38.17;28.58;;;12.50;79.30;;;;;;6132131;29;20462;-77
2023/02/10 12:23:52;;;;;;;43.97;31.15;;;12.20;78.90;;;;;;6130566;29;20054;-77
2023/02/10 12:27:01;;;;;;;42.90;30.10;;;12.60;79.00;;;;;;6130947;29;20043;-78
2023/02/10 12:30:16;;;;;;;40.60;29.27;;;12.90;77.40;;;;;;6156170;28;20511;-78
2023/02/10 12:33:32;;;;;;;37.80;28.20;;;13.10;76.70;;;;;;6162862;28;20051;-77
2023/02/10 12:36:49;;;;;;;32.80;23.80;;;13.20;74.80;;;;;;6173082;28;20051;-78
2023/02/10 12:40:05;;;;;;;33.45;24.58;;;13.00;73.40;;;;;;6177702;29;20055;-78
2023/02/10 12:43:23;;;;;;;33.13;23.45;;;13.40;73.00;;;;;;6176018;28;20066;-77
2023/02/10 12:46:40;;;;;;;40.58;26.80;;;13.60;71.30;;;;;;6176951;28;20051;-78
2023/02/10 12:49:57;;;;;;;33.00;25.75;;;13.60;69.70;;;;;;6176419;28;20134;-77
2023/02/10 12:53:19;;;;;;;36.92;25.92;;;13.80;69.10;;;;;;6174719;28;20055;-77
2023/02/10 12:56:25;;;;;;;34.67;24.88;;;14.10;68.90;;;;;;6178377;28;20107;-78
2023/02/10 12:59:48;;;;;;;32.55;23.85;;;14.50;68.20;;;;;;6175979;28;20062;-77
2023/02/10 13:02:55;;;;;;;37.25;22.40;;;14.40;65.50;;;;;;6174776;28;20050;-78
2023/02/10 13:06:06;;;;;;;32.50;23.67;;;14.30;65.10;;;;;;6184494;28;20050;-78
2023/02/10 13:09:18;;;;;;;34.42;25.30;;;14.30;64.80;;;;;;6233778;23;20042;-80
2023/02/10 13:12:24;;;;;;;39.88;22.85;;;14.50;63.90;;;;;;6179285;28;20460;-79
2023/02/10 13:15:30;;;;;;;34.40;24.08;;;14.30;62.40;;;;;;6179068;28;20065;-79
2023/02/10 13:18:34;;;;;;;31.48;24.42;;;13.70;62.10;;;;;;6178751;28;20427;-81
2023/02/10 13:21:43;;;;;;;35.83;25.27;;;13.30;63.10;;;;;;6178564;28;20051;-80
2023/02/10 13:24:55;;;;;;;36.58;26.58;;;13.50;63.70;;;;;;6177218;28;20047;-80
2023/02/10 13:28:04;;;;;;;37.17;24.05;;;13.90;63.00;;;;;;6162041;28;20058;-81
2023/02/10 13:31:32;;;;;;;31.10;22.70;;;13.90;62.00;;;;;;6154934;29;20058;-81
2023/02/10 13:34:36;;;;;;;31.43;21.80;;;13.80;61.90;;;;;;6156104;28;20048;-83
2023/02/10 13:37:40;;;;;;;31.67;22.77;;;13.90;62.40;;;;;;6175002;28;20061;-83
2023/02/10 13:40:50;;;;;;;32.92;23.00;;;13.90;62.10;;;;;;6155087;28;20484;-84
2023/02/10 13:43:57;;;;;;;36.05;24.77;;;13.90;62.80;;;;;;6154595;29;20065;-82
2023/02/10 13:47:15;;;;;;;36.67;24.92;;;14.00;63.00;;;;;;6175248;28;20106;-84
2023/02/10 13:50:22;;;;;;;35.92;26.48;;;14.50;62.70;;;;;;6162222;28;20047;-82
2023/02/10 13:53:41;;;;;;;33.40;23.80;;;14.50;62.30;;;;;;6167204;29;20044;-84
2023/02/10 13:56:53;;;;;;;31.70;24.77;;;14.40;62.50;;;;;;6162580;29;20458;-84
2023/02/10 14:00:11;;;;;;;38.63;28.00;;;14.60;62.20;;;;;;6156957;28;20055;-84
2023/02/10 14:03:22;;;;;;;32.42;23.95;;;14.50;62.30;;;;;;6155533;29;20425;-84
2023/02/10 14:06:36;;;;;;;37.35;26.40;;;14.40;61.90;;;;;;6155037;29;20050;-83
2023/02/10 14:09:38;;;;;;;38.28;27.27;;;14.50;62.20;;;;;;6163102;28;20113;-82
2023/02/10 14:12:42;;;;;;;35.50;24.83;;;14.50;61.60;;;;;;6161788;28;20055;-82
2023/02/10 14:15:54;;;;;;;37.42;27.00;;;14.60;61.70;;;;;;6155998;29;20063;-84
2023/02/10 14:19:00;;;;;;;39.30;25.48;;;14.50;61.30;;;;;;6154071;29;20505;-82
2023/02/10 14:22:03;;;;;;;36.40;26.67;;;14.40;61.50;;;;;;6154111;28;20054;-83
2023/02/10 14:25:17;;;;;;;35.58;25.38;;;14.50;61.50;;;;;;6154468;29;20043;-83
2023/02/10 14:28:26;;;;;;;34.35;23.55;;;14.40;60.60;;;;;;6161743;29;20051;-82
2023/02/10 14:31:31;;;;;;;32.53;24.40;;;14.20;61.60;;;;;;6165834;29;20043;-83
2023/02/10 14:34:34;;;;;;;42.13;25.00;;;14.40;61.30;;;;;;6156355;29;20107;-85
2023/02/10 14:37:37;;;;;;;33.47;22.83;;;14.20;61.00;;;;;;6148726;28;20484;-82
2023/02/10 14:40:38;;;;;;;34.25;24.00;;;14.10;61.10;;;;;;6140958;28;20144;-82
2023/02/10 14:43:41;;;;;;;31.65;24.98;;;13.90;60.60;;;;;;6179030;28;20051;-82
2023/02/10 14:46:47;;;;;;;38.03;25.77;;;13.80;61.30;;;;;;6178545;28;20059;-82
2023/02/10 14:49:51;;;;;;;35.75;25.95;;;14.00;60.60;;;;;;6178824;28;20046;-82
2023/02/10 14:52:53;;;;;;;37.22;23.67;;;14.10;60.50;;;;;;6177888;28;21850;-82
2023/02/10 14:55:56;;;;;;;34.67;24.52;;;14.00;60.20;;;;;;6178955;28;20050;-82
2023/02/10 14:58:59;;;;;;;36.25;25.88;;;13.70;60.10;;;;;;6176701;28;20055;-82
2023/02/10 15:02:11;;;;;;;34.25;23.70;;;13.40;60.50;;;;;;6177403;28;20046;-83
2023/02/10 15:05:18;;;;;;;38.08;25.42;;;13.20;60.30;;;;;;6175657;28;20049;-82
2023/02/10 15:08:24;;;;;;;31.90;24.00;;;12.60;61.20;;;;;;6153216;28;20385;-81
2023/02/10 15:14:55;;;;;;;34.10;22.85;;;12.40;61.70;;;;;;6156185;28;20051;-81
2023/02/10 15:18:01;;;;;;;32.08;21.55;;;12.10;61.90;;;;;;6152820;28;20186;-82
2023/02/10 15:21:05;;;;;;;33.95;23.83;;;11.90;62.60;;;;;;6151977;28;20050;-82
2023/02/10 15:24:24;;;;;;;39.70;24.40;;;11.80;62.90;;;;;;6160718;28;20047;-81
2023/02/10 15:27:25;;;;;;;30.00;22.42;;;11.60;63.20;;;;;;6176268;28;20050;-82
2023/02/10 15:30:29;;;;;;;33.13;22.70;;;11.40;63.40;;;;;;6177086;28;20050;-82
2023/02/10 15:33:34;;;;;;;38.72;24.73;;;11.20;64.10;;;;;;6180316;28;20065;-82
2023/02/10 15:36:46;;;;;;;31.70;21.80;;;11.00;64.00;;;;;;6178198;28;20142;-83
2023/02/10 15:39:56;;;;;;;32.25;23.45;;;10.70;64.20;;;;;;6175437;28;20047;-83
2023/02/10 15:43:03;;;;;;;41.42;23.88;;;10.40;65.00;;;;;;6172134;28;20043;-82
2023/02/10 15:46:07;;;;;;;36.03;24.45;;;10.30;65.30;;;;;;6175664;28;20043;-81
2023/02/10 15:49:11;;;;;;;38.08;25.08;;;10.10;65.60;;;;;;6151917;28;20051;-82
2023/02/10 15:52:17;;;;;;;39.60;23.70;;;9.90;66.00;;;;;;6152562;29;20569;-81
2023/02/10 15:55:21;;;;;;;34.63;23.52;;;9.60;66.10;;;;;;6151721;29;20524;-83
2023/02/10 15:58:23;;;;;;;33.40;22.60;;;9.30;66.40;;;;;;6151876;29;20134;-84
2023/02/10 16:01:26;;;;;;;37.65;23.00;;;8.90;67.00;;;;;;6151406;28;20055;-84